Pagina principale
METAR-TAF:

METAR-TAF

Aeroporti :

Aeroporto di Pisa-San Giusto

Pisa, Italia

latitudine: 43-41N, longitudine: 010-23E, altezza: 2 m

Osservazione

Il bollettino è stato emesso 33 minuti fa, alle 16:15 UTC
Vento 10 kt da ovest/nord-ovest
Temperature 25°C
Umidità 83%
Pressione 1016 hPa
Visibilità 10 km o più
Poco nuvoloso ad un'altezza di 3000 ft

METAR: LIRP 171615Z 29010KT 9999 FEW030 25/22 Q1016 NOSIG

Ora: 18:48 (16:48 UTC)

Previsione

Il bollettino è stato emesso 5 ore e 48 minuti fa, alle 11:00 UTC
Previsione valida dal 17 alle 12 UTC al 18 alle 12 UTC
Vento 10 kt da ovest
Visibilità 10 km o più
Poco nuvoloso ad un'altezza di 3000 ft
Probabilità 30% :
Temporaneamente
dal 18 alle 00 UTC al 18 alle 05 UTC
Visibilità: 5000 m
foschia
Evoluzione graduale
dal 18 alle 02 UTC al 18 alle 04 UTC
Vento 5 kt da est

TAF: LIRP 171100Z 1712/1812 28010KT 9999 FEW030 PROB30 TEMPO 1800/1805 5000 BR BECMG 1802/1804 09005KT

Osservazioni e previsioni meteorologiche di più di 4000 aeroporti (messaggi METAR e TAF).

Le stazioni disponibili sono rappresentate dai dischi gialli e rossi sulla carta.

Puntare il mouse per vedere il nome della stazione.

Clicca sopra per visualizzare le osservazioni e previsioni meteorologiche.

Per cambiare la mappa : fare clic sui pulsanti verdi con una croce nera per ingrandire, il pulsante verde con un trattino per diminuire, o sulla freccia verde per le mappe adiacenti.


METAR-TAF: